sensor_id;sensor_type;location;lat;lon;timestamp;P1;durP1;ratioP1;P2;durP2;ratioP2
13951;SDS011;39535;52.192;9.886;2022-11-15T00:02:14;6.10;;;5.60;;
13951;SDS011;39535;52.192;9.886;2022-11-15T00:04:42;6.07;;;5.67;;
13951;SDS011;39535;52.192;9.886;2022-11-15T00:07:08;6.40;;;5.90;;
13951;SDS011;39535;52.192;9.886;2022-11-15T00:09:35;6.50;;;5.90;;
13951;SDS011;39535;52.192;9.886;2022-11-15T00:12:01;7.10;;;6.40;;
13951;SDS011;39535;52.192;9.886;2022-11-15T00:14:28;6.33;;;5.83;;
13951;SDS011;39535;52.192;9.886;2022-11-15T00:16:54;6.87;;;6.27;;
13951;SDS011;39535;52.192;9.886;2022-11-15T00:19:20;7.17;;;6.47;;
13951;SDS011;39535;52.192;9.886;2022-11-15T00:21:48;7.00;;;6.50;;
13951;SDS011;39535;52.192;9.886;2022-11-15T00:24:15;6.53;;;6.03;;
13951;SDS011;39535;52.192;9.886;2022-11-15T00:26:41;6.80;;;6.20;;
13951;SDS011;39535;52.192;9.886;2022-11-15T00:29:07;7.60;;;6.53;;
13951;SDS011;39535;52.192;9.886;2022-11-15T00:31:34;6.43;;;5.93;;
13951;SDS011;39535;52.192;9.886;2022-11-15T00:34:00;7.40;;;6.73;;
13951;SDS011;39535;52.192;9.886;2022-11-15T00:36:27;6.63;;;6.13;;
13951;SDS011;39535;52.192;9.886;2022-11-15T00:38:54;7.70;;;6.53;;
13951;SDS011;39535;52.192;9.886;2022-11-15T00:41:21;7.77;;;7.07;;
13951;SDS011;39535;52.192;9.886;2022-11-15T00:43:47;6.53;;;6.03;;
13951;SDS011;39535;52.192;9.886;2022-11-15T00:46:14;7.03;;;6.43;;
13951;SDS011;39535;52.192;9.886;2022-11-15T00:48:40;7.87;;;7.07;;
13951;SDS011;39535;52.192;9.886;2022-11-15T00:51:07;8.13;;;7.33;;
13951;SDS011;39535;52.192;9.886;2022-11-15T00:53:33;9.10;;;8.23;;
13951;SDS011;39535;52.192;9.886;2022-11-15T00:56:01;9.10;;;7.50;;
13951;SDS011;39535;52.192;9.886;2022-11-15T00:58:28;8.80;;;8.03;;
13951;SDS011;39535;52.192;9.886;2022-11-15T01:00:54;9.80;;;8.87;;
13951;SDS011;39535;52.192;9.886;2022-11-15T01:03:20;13.97;;;7.10;;
13951;SDS011;39535;52.192;9.886;2022-11-15T01:05:47;9.03;;;8.23;;
13951;SDS011;39535;52.192;9.886;2022-11-15T01:08:14;7.97;;;7.20;;
13951;SDS011;39535;52.192;9.886;2022-11-15T01:10:41;7.80;;;7.20;;
13951;SDS011;39535;52.192;9.886;2022-11-15T01:13:09;8.07;;;7.33;;
13951;SDS011;39535;52.192;9.886;2022-11-15T01:15:38;8.33;;;7.63;;
13951;SDS011;39535;52.192;9.886;2022-11-15T01:18:06;7.47;;;6.87;;
13951;SDS011;39535;52.192;9.886;2022-11-15T01:20:32;8.03;;;6.87;;
13951;SDS011;39535;52.192;9.886;2022-11-15T01:22:59;8.17;;;7.47;;
13951;SDS011;39535;52.192;9.886;2022-11-15T01:25:25;8.30;;;7.50;;
13951;SDS011;39535;52.192;9.886;2022-11-15T01:27:52;9.00;;;7.50;;
13951;SDS011;39535;52.192;9.886;2022-11-15T01:30:19;8.20;;;7.40;;
13951;SDS011;39535;52.192;9.886;2022-11-15T01:32:46;7.47;;;6.77;;
13951;SDS011;39535;52.192;9.886;2022-11-15T01:35:12;8.23;;;7.43;;
13951;SDS011;39535;52.192;9.886;2022-11-15T01:37:39;7.27;;;6.73;;
13951;SDS011;39535;52.192;9.886;2022-11-15T01:40:05;8.53;;;7.77;;
13951;SDS011;39535;52.192;9.886;2022-11-15T01:42:32;8.43;;;7.73;;
13951;SDS011;39535;52.192;9.886;2022-11-15T01:44:59;8.13;;;7.43;;
13951;SDS011;39535;52.192;9.886;2022-11-15T01:47:28;8.10;;;7.33;;
13951;SDS011;39535;52.192;9.886;2022-11-15T01:49:58;7.77;;;7.13;;
13951;SDS011;39535;52.192;9.886;2022-11-15T01:52:28;8.97;;;8.17;;
13951;SDS011;39535;52.192;9.886;2022-11-15T01:54:59;7.93;;;7.23;;
13951;SDS011;39535;52.192;9.886;2022-11-15T01:57:31;8.70;;;7.77;;
13951;SDS011;39535;52.192;9.886;2022-11-15T01:59:57;8.23;;;7.53;;
13951;SDS011;39535;52.192;9.886;2022-11-15T02:02:27;8.33;;;7.53;;
13951;SDS011;39535;52.192;9.886;2022-11-15T02:04:54;8.00;;;7.30;;
13951;SDS011;39535;52.192;9.886;2022-11-15T02:07:20;8.37;;;7.43;;
13951;SDS011;39535;52.192;9.886;2022-11-15T02:09:48;8.30;;;7.63;;
13951;SDS011;39535;52.192;9.886;2022-11-15T02:12:17;8.57;;;7.67;;
13951;SDS011;39535;52.192;9.886;2022-11-15T02:14:46;8.10;;;7.37;;
13951;SDS011;39535;52.192;9.886;2022-11-15T02:17:20;8.63;;;7.67;;
13951;SDS011;39535;52.192;9.886;2022-11-15T02:20:29;8.87;;;7.20;;
13951;SDS011;39535;52.192;9.886;2022-11-15T02:23:23;8.53;;;7.60;;
13951;SDS011;39535;52.192;9.886;2022-11-15T02:26:30;10.60;;;7.17;;
13951;SDS011;39535;52.192;9.886;2022-11-15T02:29:15;8.17;;;7.47;;
13951;SDS011;39535;52.192;9.886;2022-11-15T02:31:59;7.90;;;7.20;;
13951;SDS011;39535;52.192;9.886;2022-11-15T02:34:33;9.27;;;7.00;;
13951;SDS011;39535;52.192;9.886;2022-11-15T02:37:10;7.73;;;7.13;;
13951;SDS011;39535;52.192;9.886;2022-11-15T02:39:45;7.53;;;6.83;;
13951;SDS011;39535;52.192;9.886;2022-11-15T02:42:17;8.93;;;6.77;;
13951;SDS011;39535;52.192;9.886;2022-11-15T02:45:09;8.27;;;7.57;;
13951;SDS011;39535;52.192;9.886;2022-11-15T02:47:41;7.63;;;6.87;;
13951;SDS011;39535;52.192;9.886;2022-11-15T02:50:10;8.30;;;7.50;;
13951;SDS011;39535;52.192;9.886;2022-11-15T02:52:41;8.27;;;7.47;;
13951;SDS011;39535;52.192;9.886;2022-11-15T02:55:24;7.97;;;7.20;;
13951;SDS011;39535;52.192;9.886;2022-11-15T02:57:55;7.30;;;6.60;;
13951;SDS011;39535;52.192;9.886;2022-11-15T03:00:33;7.97;;;7.27;;
13951;SDS011;39535;52.192;9.886;2022-11-15T03:03:12;7.47;;;6.60;;
13951;SDS011;39535;52.192;9.886;2022-11-15T03:05:53;8.37;;;6.73;;
13951;SDS011;39535;52.192;9.886;2022-11-15T03:08:31;6.70;;;6.10;;
13951;SDS011;39535;52.192;9.886;2022-11-15T03:11:03;7.10;;;6.40;;
13951;SDS011;39535;52.192;9.886;2022-11-15T03:13:36;7.03;;;6.43;;
13951;SDS011;39535;52.192;9.886;2022-11-15T03:16:11;6.17;;;5.67;;
13951;SDS011;39535;52.192;9.886;2022-11-15T03:18:45;7.73;;;6.07;;
13951;SDS011;39535;52.192;9.886;2022-11-15T03:21:16;6.37;;;5.87;;
13951;SDS011;39535;52.192;9.886;2022-11-15T03:23:45;7.87;;;5.73;;
13951;SDS011;39535;52.192;9.886;2022-11-15T03:26:14;6.50;;;5.90;;
13951;SDS011;39535;52.192;9.886;2022-11-15T03:28:46;5.83;;;5.27;;
13951;SDS011;39535;52.192;9.886;2022-11-15T03:31:16;5.77;;;5.20;;
13951;SDS011;39535;52.192;9.886;2022-11-15T03:34:06;5.80;;;5.20;;
13951;SDS011;39535;52.192;9.886;2022-11-15T03:36:37;6.63;;;6.03;;
13951;SDS011;39535;52.192;9.886;2022-11-15T03:39:05;7.27;;;5.30;;
13951;SDS011;39535;52.192;9.886;2022-11-15T03:41:35;6.20;;;5.67;;
13951;SDS011;39535;52.192;9.886;2022-11-15T03:44:09;5.50;;;5.10;;
13951;SDS011;39535;52.192;9.886;2022-11-15T03:46:42;6.60;;;6.00;;
13951;SDS011;39535;52.192;9.886;2022-11-15T03:49:15;6.17;;;5.10;;
13951;SDS011;39535;52.192;9.886;2022-11-15T03:51:46;5.03;;;4.53;;
13951;SDS011;39535;52.192;9.886;2022-11-15T03:54:13;5.03;;;4.60;;
13951;SDS011;39535;52.192;9.886;2022-11-15T03:56:39;5.53;;;5.03;;
13951;SDS011;39535;52.192;9.886;2022-11-15T03:59:06;5.30;;;4.70;;
13951;SDS011;39535;52.192;9.886;2022-11-15T04:01:32;5.93;;;4.80;;
13951;SDS011;39535;52.192;9.886;2022-11-15T04:03:59;5.07;;;4.67;;
13951;SDS011;39535;52.192;9.886;2022-11-15T04:06:26;5.13;;;4.63;;
13951;SDS011;39535;52.192;9.886;2022-11-15T04:08:53;6.50;;;5.10;;
13951;SDS011;39535;52.192;9.886;2022-11-15T04:11:19;5.57;;;4.67;;
13951;SDS011;39535;52.192;9.886;2022-11-15T04:13:46;5.63;;;5.23;;
13951;SDS011;39535;52.192;9.886;2022-11-15T04:16:12;5.60;;;4.60;;
13951;SDS011;39535;52.192;9.886;2022-11-15T04:18:39;5.20;;;4.80;;
13951;SDS011;39535;52.192;9.886;2022-11-15T04:21:05;5.00;;;4.60;;
13951;SDS011;39535;52.192;9.886;2022-11-15T04:23:56;4.97;;;4.47;;
13951;SDS011;39535;52.192;9.886;2022-11-15T04:26:38;4.83;;;4.33;;
13951;SDS011;39535;52.192;9.886;2022-11-15T04:29:04;5.37;;;4.90;;
13951;SDS011;39535;52.192;9.886;2022-11-15T04:31:48;4.77;;;4.37;;
13951;SDS011;39535;52.192;9.886;2022-11-15T04:34:14;5.17;;;4.07;;
13951;SDS011;39535;52.192;9.886;2022-11-15T04:36:41;4.63;;;4.23;;
13951;SDS011;39535;52.192;9.886;2022-11-15T04:39:26;7.03;;;4.90;;
13951;SDS011;39535;52.192;9.886;2022-11-15T04:41:53;5.23;;;4.83;;
13951;SDS011;39535;52.192;9.886;2022-11-15T04:44:19;4.33;;;3.93;;
13951;SDS011;39535;52.192;9.886;2022-11-15T04:46:46;4.43;;;4.10;;
13951;SDS011;39535;52.192;9.886;2022-11-15T04:49:12;4.53;;;4.13;;
13951;SDS011;39535;52.192;9.886;2022-11-15T04:51:38;4.40;;;4.10;;
13951;SDS011;39535;52.192;9.886;2022-11-15T04:54:05;4.37;;;4.07;;
13951;SDS011;39535;52.192;9.886;2022-11-15T04:56:33;4.97;;;4.57;;
13951;SDS011;39535;52.192;9.886;2022-11-15T04:58:59;4.53;;;3.97;;
13951;SDS011;39535;52.192;9.886;2022-11-15T05:01:26;4.97;;;4.47;;
13951;SDS011;39535;52.192;9.886;2022-11-15T05:03:52;4.13;;;3.70;;
13951;SDS011;39535;52.192;9.886;2022-11-15T05:06:37;4.27;;;4.00;;
13951;SDS011;39535;52.192;9.886;2022-11-15T05:09:03;4.00;;;3.70;;
13951;SDS011;39535;52.192;9.886;2022-11-15T05:11:30;4.10;;;3.50;;
13951;SDS011;39535;52.192;9.886;2022-11-15T05:13:57;4.50;;;3.70;;
13951;SDS011;39535;52.192;9.886;2022-11-15T05:16:24;5.97;;;5.17;;
13951;SDS011;39535;52.192;9.886;2022-11-15T05:18:50;3.93;;;3.63;;
13951;SDS011;39535;52.192;9.886;2022-11-15T05:21:17;4.90;;;4.43;;
13951;SDS011;39535;52.192;9.886;2022-11-15T05:23:44;5.13;;;4.10;;
13951;SDS011;39535;52.192;9.886;2022-11-15T05:26:10;4.47;;;4.17;;
13951;SDS011;39535;52.192;9.886;2022-11-15T05:28:37;4.10;;;3.70;;
13951;SDS011;39535;52.192;9.886;2022-11-15T05:31:06;4.53;;;4.23;;
13951;SDS011;39535;52.192;9.886;2022-11-15T05:33:34;4.43;;;4.13;;
13951;SDS011;39535;52.192;9.886;2022-11-15T05:36:02;4.37;;;3.97;;
13951;SDS011;39535;52.192;9.886;2022-11-15T05:38:33;4.73;;;4.30;;
13951;SDS011;39535;52.192;9.886;2022-11-15T05:41:00;4.50;;;4.10;;
13951;SDS011;39535;52.192;9.886;2022-11-15T05:43:27;4.43;;;3.67;;
13951;SDS011;39535;52.192;9.886;2022-11-15T05:45:58;7.90;;;4.23;;
13951;SDS011;39535;52.192;9.886;2022-11-15T05:48:27;6.97;;;4.20;;
13951;SDS011;39535;52.192;9.886;2022-11-15T05:50:53;4.20;;;3.90;;
13951;SDS011;39535;52.192;9.886;2022-11-15T05:53:21;4.13;;;3.83;;
13951;SDS011;39535;52.192;9.886;2022-11-15T05:55:50;4.40;;;3.93;;
13951;SDS011;39535;52.192;9.886;2022-11-15T05:58:17;4.53;;;4.20;;
13951;SDS011;39535;52.192;9.886;2022-11-15T06:00:45;4.53;;;4.13;;
13951;SDS011;39535;52.192;9.886;2022-11-15T06:03:12;5.00;;;4.20;;
13951;SDS011;39535;52.192;9.886;2022-11-15T06:05:40;5.23;;;3.90;;
13951;SDS011;39535;52.192;9.886;2022-11-15T06:08:07;4.07;;;3.80;;
13951;SDS011;39535;52.192;9.886;2022-11-15T06:10:33;4.33;;;4.03;;
13951;SDS011;39535;52.192;9.886;2022-11-15T06:13:00;4.63;;;4.33;;
13951;SDS011;39535;52.192;9.886;2022-11-15T06:15:27;4.53;;;4.13;;
13951;SDS011;39535;52.192;9.886;2022-11-15T06:17:55;4.20;;;3.80;;
13951;SDS011;39535;52.192;9.886;2022-11-15T06:20:23;3.83;;;3.47;;
13951;SDS011;39535;52.192;9.886;2022-11-15T06:22:51;4.77;;;4.00;;
13951;SDS011;39535;52.192;9.886;2022-11-15T06:25:22;3.80;;;3.50;;
13951;SDS011;39535;52.192;9.886;2022-11-15T06:27:50;3.97;;;3.60;;
13951;SDS011;39535;52.192;9.886;2022-11-15T06:30:17;4.43;;;4.03;;
13951;SDS011;39535;52.192;9.886;2022-11-15T06:32:43;3.67;;;3.40;;
13951;SDS011;39535;52.192;9.886;2022-11-15T06:35:10;4.43;;;4.13;;
13951;SDS011;39535;52.192;9.886;2022-11-15T06:37:36;4.57;;;4.27;;
13951;SDS011;39535;52.192;9.886;2022-11-15T06:40:05;4.33;;;3.97;;
13951;SDS011;39535;52.192;9.886;2022-11-15T06:42:32;5.67;;;3.73;;
13951;SDS011;39535;52.192;9.886;2022-11-15T06:44:59;4.87;;;4.17;;
13951;SDS011;39535;52.192;9.886;2022-11-15T06:47:25;4.67;;;4.37;;
13951;SDS011;39535;52.192;9.886;2022-11-15T06:49:52;4.77;;;4.30;;
13951;SDS011;39535;52.192;9.886;2022-11-15T06:52:18;4.63;;;4.23;;
13951;SDS011;39535;52.192;9.886;2022-11-15T06:54:45;4.93;;;4.53;;
13951;SDS011;39535;52.192;9.886;2022-11-15T06:57:13;5.10;;;4.70;;
13951;SDS011;39535;52.192;9.886;2022-11-15T06:59:39;5.60;;;5.10;;
13951;SDS011;39535;52.192;9.886;2022-11-15T07:02:05;6.23;;;5.20;;
13951;SDS011;39535;52.192;9.886;2022-11-15T07:04:32;5.53;;;5.03;;
13951;SDS011;39535;52.192;9.886;2022-11-15T07:07:01;5.70;;;5.30;;
13951;SDS011;39535;52.192;9.886;2022-11-15T07:09:27;5.83;;;5.33;;
13951;SDS011;39535;52.192;9.886;2022-11-15T07:11:53;5.50;;;5.10;;
13951;SDS011;39535;52.192;9.886;2022-11-15T07:14:21;5.43;;;4.90;;
13951;SDS011;39535;52.192;9.886;2022-11-15T07:16:48;4.47;;;4.17;;
13951;SDS011;39535;52.192;9.886;2022-11-15T07:19:14;6.80;;;4.87;;
13951;SDS011;39535;52.192;9.886;2022-11-15T07:21:40;5.10;;;4.70;;
13951;SDS011;39535;52.192;9.886;2022-11-15T07:24:07;5.27;;;4.87;;
13951;SDS011;39535;52.192;9.886;2022-11-15T07:26:33;9.67;;;4.90;;
13951;SDS011;39535;52.192;9.886;2022-11-15T07:29:00;5.03;;;4.63;;
13951;SDS011;39535;52.192;9.886;2022-11-15T07:31:28;4.77;;;4.37;;
13951;SDS011;39535;52.192;9.886;2022-11-15T07:33:54;5.73;;;4.50;;
13951;SDS011;39535;52.192;9.886;2022-11-15T07:36:21;6.47;;;5.00;;
13951;SDS011;39535;52.192;9.886;2022-11-15T07:38:47;5.03;;;4.63;;
13951;SDS011;39535;52.192;9.886;2022-11-15T07:41:14;5.37;;;4.90;;
13951;SDS011;39535;52.192;9.886;2022-11-15T07:43:40;5.00;;;4.60;;
13951;SDS011;39535;52.192;9.886;2022-11-15T07:46:07;4.77;;;4.27;;
13951;SDS011;39535;52.192;9.886;2022-11-15T07:48:36;5.10;;;4.63;;
13951;SDS011;39535;52.192;9.886;2022-11-15T07:51:05;5.03;;;4.60;;
13951;SDS011;39535;52.192;9.886;2022-11-15T07:53:31;4.80;;;4.40;;
13951;SDS011;39535;52.192;9.886;2022-11-15T07:55:58;5.00;;;4.60;;
13951;SDS011;39535;52.192;9.886;2022-11-15T07:58:24;4.60;;;4.20;;
13951;SDS011;39535;52.192;9.886;2022-11-15T08:00:51;5.00;;;4.60;;
13951;SDS011;39535;52.192;9.886;2022-11-15T08:03:18;5.10;;;4.70;;
13951;SDS011;39535;52.192;9.886;2022-11-15T08:05:49;4.80;;;4.40;;
13951;SDS011;39535;52.192;9.886;2022-11-15T08:08:16;5.23;;;4.73;;
13951;SDS011;39535;52.192;9.886;2022-11-15T08:10:43;4.53;;;4.13;;
13951;SDS011;39535;52.192;9.886;2022-11-15T08:13:10;4.80;;;4.13;;
13951;SDS011;39535;52.192;9.886;2022-11-15T08:15:38;4.73;;;4.40;;
13951;SDS011;39535;52.192;9.886;2022-11-15T08:18:05;4.50;;;4.10;;
13951;SDS011;39535;52.192;9.886;2022-11-15T08:20:32;5.57;;;4.97;;
13951;SDS011;39535;52.192;9.886;2022-11-15T08:23:01;4.57;;;4.17;;
13951;SDS011;39535;52.192;9.886;2022-11-15T08:25:29;5.07;;;4.50;;
13951;SDS011;39535;52.192;9.886;2022-11-15T08:27:57;4.73;;;4.40;;
13951;SDS011;39535;52.192;9.886;2022-11-15T08:30:25;4.80;;;4.30;;
13951;SDS011;39535;52.192;9.886;2022-11-15T08:32:52;5.43;;;4.63;;
13951;SDS011;39535;52.192;9.886;2022-11-15T08:35:20;4.80;;;4.40;;
13951;SDS011;39535;52.192;9.886;2022-11-15T08:37:46;4.47;;;4.00;;
13951;SDS011;39535;52.192;9.886;2022-11-15T08:40:15;4.60;;;4.20;;
13951;SDS011;39535;52.192;9.886;2022-11-15T08:42:42;9.63;;;4.10;;
13951;SDS011;39535;52.192;9.886;2022-11-15T08:45:12;4.07;;;3.77;;
13951;SDS011;39535;52.192;9.886;2022-11-15T08:47:38;5.30;;;4.43;;
13951;SDS011;39535;52.192;9.886;2022-11-15T08:50:05;4.20;;;3.90;;
13951;SDS011;39535;52.192;9.886;2022-11-15T08:52:33;5.13;;;4.67;;
13951;SDS011;39535;52.192;9.886;2022-11-15T08:54:59;4.30;;;3.87;;
13951;SDS011;39535;52.192;9.886;2022-11-15T08:57:29;4.37;;;3.97;;
13951;SDS011;39535;52.192;9.886;2022-11-15T08:59:56;4.07;;;3.77;;
13951;SDS011;39535;52.192;9.886;2022-11-15T09:02:22;4.07;;;3.77;;
13951;SDS011;39535;52.192;9.886;2022-11-15T09:04:49;3.20;;;2.90;;
13951;SDS011;39535;52.192;9.886;2022-11-15T09:07:15;4.07;;;3.30;;
13951;SDS011;39535;52.192;9.886;2022-11-15T09:09:42;4.93;;;4.43;;
13951;SDS011;39535;52.192;9.886;2022-11-15T09:12:09;3.50;;;3.20;;
13951;SDS011;39535;52.192;9.886;2022-11-15T09:14:36;3.87;;;3.40;;
13951;SDS011;39535;52.192;9.886;2022-11-15T09:17:03;4.10;;;3.67;;
13951;SDS011;39535;52.192;9.886;2022-11-15T09:19:33;3.60;;;3.30;;
13951;SDS011;39535;52.192;9.886;2022-11-15T09:21:59;3.33;;;3.03;;
13951;SDS011;39535;52.192;9.886;2022-11-15T09:24:26;3.23;;;3.03;;
13951;SDS011;39535;52.192;9.886;2022-11-15T09:26:52;3.33;;;3.10;;
13951;SDS011;39535;52.192;9.886;2022-11-15T09:29:19;3.57;;;3.27;;
13951;SDS011;39535;52.192;9.886;2022-11-15T09:31:46;4.27;;;3.87;;
13951;SDS011;39535;52.192;9.886;2022-11-15T09:34:13;3.60;;;3.30;;
13951;SDS011;39535;52.192;9.886;2022-11-15T09:36:39;4.40;;;3.43;;
13951;SDS011;39535;52.192;9.886;2022-11-15T09:39:06;3.97;;;3.60;;
13951;SDS011;39535;52.192;9.886;2022-11-15T09:41:36;3.50;;;3.20;;
13951;SDS011;39535;52.192;9.886;2022-11-15T09:47:28;3.83;;;3.47;;
13951;SDS011;39535;52.192;9.886;2022-11-15T09:50:07;3.83;;;3.53;;
13951;SDS011;39535;52.192;9.886;2022-11-15T09:52:36;3.73;;;3.43;;
13951;SDS011;39535;52.192;9.886;2022-11-15T09:55:07;3.70;;;3.40;;
13951;SDS011;39535;52.192;9.886;2022-11-15T09:57:38;3.10;;;2.90;;
13951;SDS011;39535;52.192;9.886;2022-11-15T10:00:12;3.47;;;3.17;;
13951;SDS011;39535;52.192;9.886;2022-11-15T10:02:50;3.40;;;3.20;;
13951;SDS011;39535;52.192;9.886;2022-11-15T10:05:24;3.30;;;3.10;;
13951;SDS011;39535;52.192;9.886;2022-11-15T10:07:54;3.90;;;3.30;;
13951;SDS011;39535;52.192;9.886;2022-11-15T10:10:25;3.23;;;3.03;;
13951;SDS011;39535;52.192;9.886;2022-11-15T10:12:55;3.57;;;3.07;;
13951;SDS011;39535;52.192;9.886;2022-11-15T10:15:22;4.70;;;3.77;;
13951;SDS011;39535;52.192;9.886;2022-11-15T10:18:07;3.43;;;2.93;;
13951;SDS011;39535;52.192;9.886;2022-11-15T10:20:42;3.30;;;3.10;;
13951;SDS011;39535;52.192;9.886;2022-11-15T10:23:14;3.73;;;3.43;;
13951;SDS011;39535;52.192;9.886;2022-11-15T10:25:42;3.97;;;3.63;;
13951;SDS011;39535;52.192;9.886;2022-11-15T10:28:10;3.40;;;3.10;;
13951;SDS011;39535;52.192;9.886;2022-11-15T10:30:40;3.70;;;3.50;;
13951;SDS011;39535;52.192;9.886;2022-11-15T10:33:13;3.27;;;2.90;;
13951;SDS011;39535;52.192;9.886;2022-11-15T10:35:45;3.20;;;3.00;;
13951;SDS011;39535;52.192;9.886;2022-11-15T10:38:12;3.87;;;3.17;;
13951;SDS011;39535;52.192;9.886;2022-11-15T10:40:39;3.33;;;3.03;;
13951;SDS011;39535;52.192;9.886;2022-11-15T10:43:13;3.47;;;2.90;;
13951;SDS011;39535;52.192;9.886;2022-11-15T10:45:42;4.87;;;2.90;;
13951;SDS011;39535;52.192;9.886;2022-11-15T10:48:24;2.93;;;2.73;;
13951;SDS011;39535;52.192;9.886;2022-11-15T10:50:51;4.93;;;2.93;;
13951;SDS011;39535;52.192;9.886;2022-11-15T10:53:21;3.33;;;3.07;;
13951;SDS011;39535;52.192;9.886;2022-11-15T10:55:51;3.27;;;3.07;;
13951;SDS011;39535;52.192;9.886;2022-11-15T10:58:21;4.83;;;3.57;;
13951;SDS011;39535;52.192;9.886;2022-11-15T11:00:54;3.60;;;3.13;;
13951;SDS011;39535;52.192;9.886;2022-11-15T11:03:27;3.47;;;3.13;;
13951;SDS011;39535;52.192;9.886;2022-11-15T11:06:05;3.87;;;2.87;;
13951;SDS011;39535;52.192;9.886;2022-11-15T11:08:34;3.23;;;3.03;;
13951;SDS011;39535;52.192;9.886;2022-11-15T11:11:02;3.33;;;2.90;;
13951;SDS011;39535;52.192;9.886;2022-11-15T11:13:30;3.53;;;3.17;;
13951;SDS011;39535;52.192;9.886;2022-11-15T11:16:14;4.83;;;3.40;;
13951;SDS011;39535;52.192;9.886;2022-11-15T11:18:51;3.40;;;3.10;;
13951;SDS011;39535;52.192;9.886;2022-11-15T11:21:30;3.23;;;3.03;;
13951;SDS011;39535;52.192;9.886;2022-11-15T11:24:08;3.87;;;3.40;;
13951;SDS011;39535;52.192;9.886;2022-11-15T11:26:42;3.27;;;3.07;;
13951;SDS011;39535;52.192;9.886;2022-11-15T11:29:24;3.93;;;2.83;;
13951;SDS011;39535;52.192;9.886;2022-11-15T11:31:58;2.90;;;2.70;;
13951;SDS011;39535;52.192;9.886;2022-11-15T11:34:36;3.43;;;3.13;;
13951;SDS011;39535;52.192;9.886;2022-11-15T11:37:16;2.83;;;2.57;;
13951;SDS011;39535;52.192;9.886;2022-11-15T11:39:48;4.97;;;3.23;;
13951;SDS011;39535;52.192;9.886;2022-11-15T11:42:26;3.60;;;3.30;;
13951;SDS011;39535;52.192;9.886;2022-11-15T11:45:03;3.67;;;3.37;;
13951;SDS011;39535;52.192;9.886;2022-11-15T11:47:43;3.00;;;2.70;;
13951;SDS011;39535;52.192;9.886;2022-11-15T11:50:17;3.40;;;3.10;;
13951;SDS011;39535;52.192;9.886;2022-11-15T11:52:53;3.27;;;2.50;;
13951;SDS011;39535;52.192;9.886;2022-11-15T11:55:24;4.13;;;2.80;;
13951;SDS011;39535;52.192;9.886;2022-11-15T11:57:57;3.23;;;2.93;;
13951;SDS011;39535;52.192;9.886;2022-11-15T12:00:29;3.60;;;3.30;;
13951;SDS011;39535;52.192;9.886;2022-11-15T12:03:03;3.87;;;3.20;;
13951;SDS011;39535;52.192;9.886;2022-11-15T12:05:37;3.17;;;2.87;;
13951;SDS011;39535;52.192;9.886;2022-11-15T12:08:14;3.80;;;3.40;;
13951;SDS011;39535;52.192;9.886;2022-11-15T12:10:50;2.90;;;2.70;;
13951;SDS011;39535;52.192;9.886;2022-11-15T12:13:21;3.60;;;3.30;;
13951;SDS011;39535;52.192;9.886;2022-11-15T12:15:55;4.77;;;3.17;;
13951;SDS011;39535;52.192;9.886;2022-11-15T12:18:32;2.87;;;2.67;;
13951;SDS011;39535;52.192;9.886;2022-11-15T12:21:04;3.70;;;3.40;;
13951;SDS011;39535;52.192;9.886;2022-11-15T12:23:39;3.10;;;2.90;;
13951;SDS011;39535;52.192;9.886;2022-11-15T12:26:11;3.20;;;2.90;;
13951;SDS011;39535;52.192;9.886;2022-11-15T12:28:44;4.03;;;3.30;;
13951;SDS011;39535;52.192;9.886;2022-11-15T12:31:16;4.30;;;3.30;;
13951;SDS011;39535;52.192;9.886;2022-11-15T12:33:47;2.97;;;2.73;;
13951;SDS011;39535;52.192;9.886;2022-11-15T12:39:02;4.33;;;3.33;;
13951;SDS011;39535;52.192;9.886;2022-11-15T12:41:30;3.47;;;2.90;;
13951;SDS011;39535;52.192;9.886;2022-11-15T12:43:57;4.00;;;3.03;;
13951;SDS011;39535;52.192;9.886;2022-11-15T12:49:43;3.87;;;3.13;;
13951;SDS011;39535;52.192;9.886;2022-11-15T12:52:12;4.17;;;2.90;;
13951;SDS011;39535;52.192;9.886;2022-11-15T12:54:55;3.97;;;3.40;;
13951;SDS011;39535;52.192;9.886;2022-11-15T12:57:31;2.97;;;2.77;;
13951;SDS011;39535;52.192;9.886;2022-11-15T13:03:18;5.03;;;2.80;;
13951;SDS011;39535;52.192;9.886;2022-11-15T13:05:53;3.90;;;2.87;;
13951;SDS011;39535;52.192;9.886;2022-11-15T13:17:25;3.57;;;3.20;;
13951;SDS011;39535;52.192;9.886;2022-11-15T13:19:58;3.20;;;2.90;;
13951;SDS011;39535;52.192;9.886;2022-11-15T13:22:27;7.17;;;3.60;;
13951;SDS011;39535;52.192;9.886;2022-11-15T13:25:17;3.07;;;2.77;;
13951;SDS011;39535;52.192;9.886;2022-11-15T13:27:49;2.97;;;2.77;;
13951;SDS011;39535;52.192;9.886;2022-11-15T13:30:19;3.43;;;2.80;;
13951;SDS011;39535;52.192;9.886;2022-11-15T13:32:46;3.03;;;2.73;;
13951;SDS011;39535;52.192;9.886;2022-11-15T13:35:17;3.30;;;2.53;;
13951;SDS011;39535;52.192;9.886;2022-11-15T13:37:46;2.77;;;2.57;;
13951;SDS011;39535;52.192;9.886;2022-11-15T13:40:21;2.77;;;2.50;;
13951;SDS011;39535;52.192;9.886;2022-11-15T13:42:52;2.93;;;2.73;;
13951;SDS011;39535;52.192;9.886;2022-11-15T13:45:19;3.13;;;2.83;;
13951;SDS011;39535;52.192;9.886;2022-11-15T13:47:50;2.40;;;2.30;;
13951;SDS011;39535;52.192;9.886;2022-11-15T13:50:17;2.93;;;2.60;;
13951;SDS011;39535;52.192;9.886;2022-11-15T13:52:47;4.13;;;2.53;;
13951;SDS011;39535;52.192;9.886;2022-11-15T13:55:15;3.27;;;2.67;;
13951;SDS011;39535;52.192;9.886;2022-11-15T13:57:46;2.67;;;2.47;;
13951;SDS011;39535;52.192;9.886;2022-11-15T14:00:24;3.37;;;3.10;;
13951;SDS011;39535;52.192;9.886;2022-11-15T14:02:53;3.20;;;2.90;;
13951;SDS011;39535;52.192;9.886;2022-11-15T14:05:21;2.90;;;2.70;;
13951;SDS011;39535;52.192;9.886;2022-11-15T14:07:54;2.87;;;2.63;;
13951;SDS011;39535;52.192;9.886;2022-11-15T14:10:26;5.63;;;2.70;;
13951;SDS011;39535;52.192;9.886;2022-11-15T14:12:56;3.40;;;3.10;;
13951;SDS011;39535;52.192;9.886;2022-11-15T14:15:27;4.90;;;3.13;;
13951;SDS011;39535;52.192;9.886;2022-11-15T14:17:56;2.77;;;2.57;;
13951;SDS011;39535;52.192;9.886;2022-11-15T14:20:26;3.20;;;2.90;;
13951;SDS011;39535;52.192;9.886;2022-11-15T14:22:57;2.87;;;2.67;;
13951;SDS011;39535;52.192;9.886;2022-11-15T14:25:24;2.97;;;2.77;;
13951;SDS011;39535;52.192;9.886;2022-11-15T14:28:13;3.17;;;2.70;;
13951;SDS011;39535;52.192;9.886;2022-11-15T14:30:42;3.33;;;3.03;;
13951;SDS011;39535;52.192;9.886;2022-11-15T14:33:18;2.97;;;2.67;;
13951;SDS011;39535;52.192;9.886;2022-11-15T14:35:47;3.57;;;2.87;;
13951;SDS011;39535;52.192;9.886;2022-11-15T14:38:13;2.60;;;2.40;;
13951;SDS011;39535;52.192;9.886;2022-11-15T14:40:40;2.60;;;2.40;;
13951;SDS011;39535;52.192;9.886;2022-11-15T14:43:08;4.20;;;2.97;;
13951;SDS011;39535;52.192;9.886;2022-11-15T14:45:35;4.23;;;3.03;;
13951;SDS011;39535;52.192;9.886;2022-11-15T14:48:02;2.97;;;2.77;;
13951;SDS011;39535;52.192;9.886;2022-11-15T14:50:29;3.08;;;2.80;;
13951;SDS011;39535;52.192;9.886;2022-11-15T14:52:56;2.90;;;2.70;;
13951;SDS011;39535;52.192;9.886;2022-11-15T14:55:23;3.10;;;2.60;;
13951;SDS011;39535;52.192;9.886;2022-11-15T14:57:52;2.80;;;2.50;;
13951;SDS011;39535;52.192;9.886;2022-11-15T15:00:19;4.50;;;3.40;;
13951;SDS011;39535;52.192;9.886;2022-11-15T15:02:47;4.20;;;3.10;;
13951;SDS011;39535;52.192;9.886;2022-11-15T15:05:15;4.27;;;2.77;;
13951;SDS011;39535;52.192;9.886;2022-11-15T15:07:43;4.40;;;3.13;;
13951;SDS011;39535;52.192;9.886;2022-11-15T15:10:10;2.80;;;2.60;;
13951;SDS011;39535;52.192;9.886;2022-11-15T15:12:38;2.97;;;2.53;;
13951;SDS011;39535;52.192;9.886;2022-11-15T15:15:05;3.33;;;3.03;;
13951;SDS011;39535;52.192;9.886;2022-11-15T15:17:37;3.30;;;2.97;;
13951;SDS011;39535;52.192;9.886;2022-11-15T15:20:05;3.30;;;3.00;;
13951;SDS011;39535;52.192;9.886;2022-11-15T15:22:32;4.97;;;2.80;;
13951;SDS011;39535;52.192;9.886;2022-11-15T15:24:59;3.23;;;2.93;;
13951;SDS011;39535;52.192;9.886;2022-11-15T15:27:25;3.30;;;3.00;;